Terminal Aerodrome Forecast
Issued by NWS Boise, ID

Home | Current Version | Previous Version | Text Only | Print | Product List | Glossary On
Versions: 1 2 3 4 5 6 7 8 9 10 11 12 13 14 15 16 17 18 19 20 21 22 23 24 25 26 27 28 29 30 31 32 33 34 35 36 37 38 39 40 41 42 43 44 45
000
FTUS45 KBOI 301520 AAC
TAFBOI
TAF AMD
KBOI 301520Z 3015/0112 29007KT 6SM BR SCT008 BKN020 OVC070
     FM301630 31012G22KT P6SM SCT070
     FM010400 30006KT P6SM SKC=

USA.gov is the U.S. government's official web portal to all federal, state and local government web resources and services.